sensor_id;sensor_type;location;lat;lon;timestamp;pressure;altitude;pressure_sealevel;temperature;humidity
60589;BME280;46421;48.610;9.334;2023-03-18T00:00:41;97579.97;;;9.06;68.38
60589;BME280;46421;48.610;9.334;2023-03-18T00:03:06;97584.47;;;9.20;67.80
60589;BME280;46421;48.610;9.334;2023-03-18T00:05:33;97572.25;;;9.34;66.72
60589;BME280;46421;48.610;9.334;2023-03-18T00:07:59;97574.66;;;9.44;65.92
60589;BME280;46421;48.610;9.334;2023-03-18T00:10:24;97579.69;;;9.54;65.72
60589;BME280;46421;48.610;9.334;2023-03-18T00:12:50;97577.03;;;9.39;65.89
60589;BME280;46421;48.610;9.334;2023-03-18T00:15:18;97575.84;;;9.41;66.29
60589;BME280;46421;48.610;9.334;2023-03-18T00:17:44;97577.19;;;9.37;65.80
60589;BME280;46421;48.610;9.334;2023-03-18T00:20:10;97579.75;;;9.30;65.94
60589;BME280;46421;48.610;9.334;2023-03-18T00:22:37;97588.63;;;9.38;66.07
60589;BME280;46421;48.610;9.334;2023-03-18T00:25:04;97583.53;;;9.51;64.06
60589;BME280;46421;48.610;9.334;2023-03-18T00:27:32;97575.47;;;9.06;67.29
60589;BME280;46421;48.610;9.334;2023-03-18T00:29:58;97576.34;;;8.52;71.44
60589;BME280;46421;48.610;9.334;2023-03-18T00:32:27;97586.25;;;8.18;74.36
60589;BME280;46421;48.610;9.334;2023-03-18T00:34:53;97590.44;;;8.04;75.74
60589;BME280;46421;48.610;9.334;2023-03-18T00:37:19;97592.16;;;7.89;76.07
60589;BME280;46421;48.610;9.334;2023-03-18T00:40:04;97595.03;;;8.19;76.52
60589;BME280;46421;48.610;9.334;2023-03-18T00:42:33;97598.56;;;8.03;76.96
60589;BME280;46421;48.610;9.334;2023-03-18T00:45:08;97594.63;;;7.90;77.02
60589;BME280;46421;48.610;9.334;2023-03-18T00:47:35;97601.00;;;7.56;78.43
60589;BME280;46421;48.610;9.334;2023-03-18T00:50:00;97599.28;;;7.88;78.96
60589;BME280;46421;48.610;9.334;2023-03-18T00:52:27;97607.19;;;7.97;78.20
60589;BME280;46421;48.610;9.334;2023-03-18T00:54:52;97606.59;;;7.78;80.82
60589;BME280;46421;48.610;9.334;2023-03-18T00:57:18;97608.38;;;7.86;80.46
60589;BME280;46421;48.610;9.334;2023-03-18T00:59:43;97616.03;;;7.56;80.15
60589;BME280;46421;48.610;9.334;2023-03-18T01:02:09;97608.06;;;7.81;79.79
60589;BME280;46421;48.610;9.334;2023-03-18T01:04:34;97609.00;;;7.96;78.88
60589;BME280;46421;48.610;9.334;2023-03-18T01:06:59;97615.03;;;8.21;73.73
60589;BME280;46421;48.610;9.334;2023-03-18T01:09:25;97608.16;;;8.44;70.76
60589;BME280;46421;48.610;9.334;2023-03-18T01:11:51;97607.00;;;8.78;68.24
60589;BME280;46421;48.610;9.334;2023-03-18T01:14:17;97611.84;;;8.97;66.90
60589;BME280;46421;48.610;9.334;2023-03-18T01:16:43;97607.88;;;9.16;65.38
60589;BME280;46421;48.610;9.334;2023-03-18T01:19:09;97611.88;;;9.36;64.54
60589;BME280;46421;48.610;9.334;2023-03-18T01:21:34;97616.56;;;9.48;64.49
60589;BME280;46421;48.610;9.334;2023-03-18T01:24:00;97612.44;;;9.61;63.21
60589;BME280;46421;48.610;9.334;2023-03-18T01:26:26;97617.50;;;9.56;65.13
60589;BME280;46421;48.610;9.334;2023-03-18T01:28:51;97617.03;;;9.52;65.92
60589;BME280;46421;48.610;9.334;2023-03-18T01:31:17;97611.91;;;9.51;66.16
60589;BME280;46421;48.610;9.334;2023-03-18T01:33:44;97610.06;;;9.51;64.18
60589;BME280;46421;48.610;9.334;2023-03-18T01:36:10;97601.00;;;9.45;65.97
60589;BME280;46421;48.610;9.334;2023-03-18T01:38:36;97609.78;;;9.46;67.09
60589;BME280;46421;48.610;9.334;2023-03-18T01:41:02;97596.94;;;9.34;68.18
60589;BME280;46421;48.610;9.334;2023-03-18T01:43:33;97603.97;;;9.27;68.64
60589;BME280;46421;48.610;9.334;2023-03-18T01:46:21;97600.84;;;9.24;69.04
60589;BME280;46421;48.610;9.334;2023-03-18T01:48:46;97600.34;;;9.05;69.13
60589;BME280;46421;48.610;9.334;2023-03-18T01:51:12;97604.06;;;8.33;73.20
60589;BME280;46421;48.610;9.334;2023-03-18T01:53:41;97599.34;;;8.12;74.66
60589;BME280;46421;48.610;9.334;2023-03-18T01:56:08;97602.06;;;7.95;76.64
60589;BME280;46421;48.610;9.334;2023-03-18T01:58:40;97594.44;;;8.00;76.91
60589;BME280;46421;48.610;9.334;2023-03-18T02:01:11;97584.16;;;8.05;77.89
60589;BME280;46421;48.610;9.334;2023-03-18T02:03:40;97606.13;;;8.14;78.38
60589;BME280;46421;48.610;9.334;2023-03-18T02:06:06;97600.13;;;8.20;76.44
60589;BME280;46421;48.610;9.334;2023-03-18T02:08:31;97602.66;;;8.14;75.32
60589;BME280;46421;48.610;9.334;2023-03-18T02:10:57;97609.22;;;7.86;76.70
60589;BME280;46421;48.610;9.334;2023-03-18T02:13:23;97601.19;;;8.51;72.25
60589;BME280;46421;48.610;9.334;2023-03-18T02:16:00;97605.16;;;8.78;71.56
60589;BME280;46421;48.610;9.334;2023-03-18T02:18:37;97613.25;;;8.85;71.28
60589;BME280;46421;48.610;9.334;2023-03-18T02:21:18;97605.47;;;8.83;70.37
60589;BME280;46421;48.610;9.334;2023-03-18T02:24:03;97605.22;;;8.38;70.23
60589;BME280;46421;48.610;9.334;2023-03-18T02:29:02;97608.47;;;8.49;68.14
60589;BME280;46421;48.610;9.334;2023-03-18T02:31:31;97617.34;;;8.64;65.00
60589;BME280;46421;48.610;9.334;2023-03-18T02:33:58;97626.88;;;8.74;65.32
60589;BME280;46421;48.610;9.334;2023-03-18T02:36:26;97617.91;;;8.83;66.13
60589;BME280;46421;48.610;9.334;2023-03-18T02:38:53;97610.22;;;8.88;65.51
60589;BME280;46421;48.610;9.334;2023-03-18T02:41:24;97621.59;;;8.74;66.16
60589;BME280;46421;48.610;9.334;2023-03-18T02:43:50;97625.25;;;8.73;66.72
60589;BME280;46421;48.610;9.334;2023-03-18T02:46:40;97625.81;;;8.60;66.11
60589;BME280;46421;48.610;9.334;2023-03-18T02:49:12;97620.50;;;8.20;69.53
60589;BME280;46421;48.610;9.334;2023-03-18T02:51:38;97624.66;;;7.50;74.09
60589;BME280;46421;48.610;9.334;2023-03-18T02:54:12;97621.34;;;7.31;75.12
60589;BME280;46421;48.610;9.334;2023-03-18T02:56:39;97619.53;;;7.32;75.75
60589;BME280;46421;48.610;9.334;2023-03-18T02:59:06;97622.31;;;7.47;76.92
60589;BME280;46421;48.610;9.334;2023-03-18T03:01:32;97616.19;;;7.71;76.40
60589;BME280;46421;48.610;9.334;2023-03-18T03:03:58;97605.91;;;7.76;69.50
60589;BME280;46421;48.610;9.334;2023-03-18T03:06:24;97606.25;;;7.81;69.62
60589;BME280;46421;48.610;9.334;2023-03-18T03:08:50;97608.03;;;7.89;69.18
60589;BME280;46421;48.610;9.334;2023-03-18T03:11:16;97603.88;;;8.34;66.59
60589;BME280;46421;48.610;9.334;2023-03-18T03:13:42;97618.31;;;8.63;65.44
60589;BME280;46421;48.610;9.334;2023-03-18T03:16:11;97628.41;;;8.68;64.77
60589;BME280;46421;48.610;9.334;2023-03-18T03:18:36;97624.53;;;8.79;62.35
60589;BME280;46421;48.610;9.334;2023-03-18T03:21:02;97627.59;;;8.91;60.50
60589;BME280;46421;48.610;9.334;2023-03-18T03:23:27;97608.84;;;9.00;60.15
60589;BME280;46421;48.610;9.334;2023-03-18T03:25:53;97609.78;;;9.08;61.44
60589;BME280;46421;48.610;9.334;2023-03-18T03:28:19;97617.88;;;9.06;60.53
60589;BME280;46421;48.610;9.334;2023-03-18T03:30:44;97625.25;;;9.19;60.04
60589;BME280;46421;48.610;9.334;2023-03-18T03:33:10;97621.91;;;9.25;61.63
60589;BME280;46421;48.610;9.334;2023-03-18T03:35:36;97629.50;;;9.28;63.64
60589;BME280;46421;48.610;9.334;2023-03-18T03:38:02;97631.69;;;9.01;65.42
60589;BME280;46421;48.610;9.334;2023-03-18T03:40:28;97640.53;;;8.94;67.13
60589;BME280;46421;48.610;9.334;2023-03-18T03:42:53;97642.41;;;8.85;68.23
60589;BME280;46421;48.610;9.334;2023-03-18T03:45:18;97639.16;;;8.75;68.00
60589;BME280;46421;48.610;9.334;2023-03-18T03:47:44;97642.50;;;8.68;68.60
60589;BME280;46421;48.610;9.334;2023-03-18T03:50:14;97637.25;;;8.60;68.52
60589;BME280;46421;48.610;9.334;2023-03-18T03:52:40;97645.16;;;8.68;68.12
60589;BME280;46421;48.610;9.334;2023-03-18T03:55:06;97638.41;;;8.58;68.07
60589;BME280;46421;48.610;9.334;2023-03-18T03:57:33;97640.66;;;8.29;69.49
60589;BME280;46421;48.610;9.334;2023-03-18T04:00:04;97639.84;;;7.64;72.75
60589;BME280;46421;48.610;9.334;2023-03-18T04:02:31;97648.94;;;7.45;74.71
60589;BME280;46421;48.610;9.334;2023-03-18T04:04:56;97653.78;;;8.14;71.34
60589;BME280;46421;48.610;9.334;2023-03-18T04:07:22;97638.47;;;7.93;71.06
60589;BME280;46421;48.610;9.334;2023-03-18T04:09:47;97642.34;;;7.49;73.80
60589;BME280;46421;48.610;9.334;2023-03-18T04:12:13;97656.88;;;7.45;74.81
60589;BME280;46421;48.610;9.334;2023-03-18T04:14:38;97652.41;;;6.96;77.04
60589;BME280;46421;48.610;9.334;2023-03-18T04:17:04;97649.50;;;6.56;78.98
60589;BME280;46421;48.610;9.334;2023-03-18T04:19:30;97644.16;;;6.99;77.68
60589;BME280;46421;48.610;9.334;2023-03-18T04:21:55;97648.13;;;7.11;75.79
60589;BME280;46421;48.610;9.334;2023-03-18T04:24:21;97645.31;;;7.13;76.80
60589;BME280;46421;48.610;9.334;2023-03-18T04:26:47;97650.59;;;7.30;76.05
60589;BME280;46421;48.610;9.334;2023-03-18T04:29:12;97645.13;;;6.90;79.70
60589;BME280;46421;48.610;9.334;2023-03-18T04:31:38;97648.09;;;6.87;80.32
60589;BME280;46421;48.610;9.334;2023-03-18T04:34:03;97648.50;;;6.57;80.27
60589;BME280;46421;48.610;9.334;2023-03-18T04:36:29;97654.88;;;6.38;82.10
60589;BME280;46421;48.610;9.334;2023-03-18T04:38:54;97657.13;;;6.25;84.39
60589;BME280;46421;48.610;9.334;2023-03-18T04:41:19;97663.78;;;6.29;83.74
60589;BME280;46421;48.610;9.334;2023-03-18T04:43:45;97661.66;;;6.41;82.52
60589;BME280;46421;48.610;9.334;2023-03-18T04:46:11;97664.06;;;6.26;83.30
60589;BME280;46421;48.610;9.334;2023-03-18T04:48:38;97666.75;;;6.34;83.41
60589;BME280;46421;48.610;9.334;2023-03-18T04:51:04;97661.28;;;6.87;80.08
60589;BME280;46421;48.610;9.334;2023-03-18T04:53:29;97649.22;;;6.76;78.97
60589;BME280;46421;48.610;9.334;2023-03-18T04:55:55;97658.31;;;6.82;80.37
60589;BME280;46421;48.610;9.334;2023-03-18T04:58:21;97653.41;;;6.44;82.41
60589;BME280;46421;48.610;9.334;2023-03-18T05:00:47;97661.09;;;6.21;82.69
60589;BME280;46421;48.610;9.334;2023-03-18T05:03:12;97662.72;;;5.95;83.88
60589;BME280;46421;48.610;9.334;2023-03-18T05:05:38;97664.38;;;5.96;83.61
60589;BME280;46421;48.610;9.334;2023-03-18T05:08:04;97652.75;;;6.42;82.50
60589;BME280;46421;48.610;9.334;2023-03-18T05:10:29;97652.06;;;5.52;83.88
60589;BME280;46421;48.610;9.334;2023-03-18T05:12:55;97655.31;;;5.46;84.42
60589;BME280;46421;48.610;9.334;2023-03-18T05:15:20;97661.41;;;5.65;85.82
60589;BME280;46421;48.610;9.334;2023-03-18T05:17:46;97660.47;;;5.48;86.06
60589;BME280;46421;48.610;9.334;2023-03-18T05:20:12;97663.00;;;5.58;85.56
60589;BME280;46421;48.610;9.334;2023-03-18T05:22:37;97655.19;;;5.30;85.72
60589;BME280;46421;48.610;9.334;2023-03-18T05:25:04;97665.13;;;5.18;85.90
60589;BME280;46421;48.610;9.334;2023-03-18T05:27:30;97666.19;;;5.25;86.72
60589;BME280;46421;48.610;9.334;2023-03-18T05:29:55;97666.13;;;5.35;87.22
60589;BME280;46421;48.610;9.334;2023-03-18T05:32:21;97666.34;;;5.68;85.34
60589;BME280;46421;48.610;9.334;2023-03-18T05:34:46;97669.66;;;5.26;86.57
60589;BME280;46421;48.610;9.334;2023-03-18T05:37:12;97665.28;;;5.34;86.83
60589;BME280;46421;48.610;9.334;2023-03-18T05:39:39;97673.97;;;5.71;84.53
60589;BME280;46421;48.610;9.334;2023-03-18T05:42:05;97672.44;;;5.42;86.09
60589;BME280;46421;48.610;9.334;2023-03-18T05:44:31;97669.81;;;5.06;87.01
60589;BME280;46421;48.610;9.334;2023-03-18T05:46:57;97675.41;;;5.03;88.30
60589;BME280;46421;48.610;9.334;2023-03-18T05:49:23;97664.44;;;5.78;84.90
60589;BME280;46421;48.610;9.334;2023-03-18T05:51:49;97675.91;;;5.69;84.33
60589;BME280;46421;48.610;9.334;2023-03-18T05:54:15;97672.47;;;5.24;86.15
60589;BME280;46421;48.610;9.334;2023-03-18T05:56:41;97668.22;;;5.13;86.78
60589;BME280;46421;48.610;9.334;2023-03-18T05:59:11;97670.22;;;5.56;86.07
60589;BME280;46421;48.610;9.334;2023-03-18T06:01:36;97675.47;;;6.00;82.62
60589;BME280;46421;48.610;9.334;2023-03-18T06:04:03;97678.38;;;5.89;83.63
60589;BME280;46421;48.610;9.334;2023-03-18T06:06:31;97678.22;;;5.46;84.47
60589;BME280;46421;48.610;9.334;2023-03-18T06:08:56;97670.72;;;5.33;84.96
60589;BME280;46421;48.610;9.334;2023-03-18T06:11:23;97685.16;;;5.11;85.80
60589;BME280;46421;48.610;9.334;2023-03-18T06:13:49;97681.31;;;5.41;85.50
60589;BME280;46421;48.610;9.334;2023-03-18T06:16:15;97684.53;;;5.53;84.68
60589;BME280;46421;48.610;9.334;2023-03-18T06:18:40;97682.44;;;5.83;84.34
60589;BME280;46421;48.610;9.334;2023-03-18T06:21:07;97686.22;;;5.54;83.33
60589;BME280;46421;48.610;9.334;2023-03-18T06:23:34;97691.19;;;5.83;81.51
60589;BME280;46421;48.610;9.334;2023-03-18T06:26:00;97682.34;;;5.66;82.35
60589;BME280;46421;48.610;9.334;2023-03-18T06:28:26;97690.00;;;5.51;83.28
60589;BME280;46421;48.610;9.334;2023-03-18T06:30:57;97691.56;;;5.44;83.75
60589;BME280;46421;48.610;9.334;2023-03-18T06:33:25;97692.91;;;5.48;84.55
60589;BME280;46421;48.610;9.334;2023-03-18T06:35:51;97699.47;;;5.62;85.89
60589;BME280;46421;48.610;9.334;2023-03-18T06:38:17;97702.56;;;5.84;87.19
60589;BME280;46421;48.610;9.334;2023-03-18T06:40:44;97703.97;;;6.49;84.93
60589;BME280;46421;48.610;9.334;2023-03-18T06:43:09;97696.97;;;6.83;78.33
60589;BME280;46421;48.610;9.334;2023-03-18T06:45:36;97706.94;;;7.05;75.78
60589;BME280;46421;48.610;9.334;2023-03-18T06:48:01;97708.13;;;7.44;74.58
60589;BME280;46421;48.610;9.334;2023-03-18T06:50:27;97709.28;;;7.58;72.58
60589;BME280;46421;48.610;9.334;2023-03-18T06:52:53;97708.28;;;7.75;71.99
60589;BME280;46421;48.610;9.334;2023-03-18T06:55:19;97717.03;;;7.84;72.75
60589;BME280;46421;48.610;9.334;2023-03-18T06:57:44;97700.53;;;10.63;63.71
60589;BME280;46421;48.610;9.334;2023-03-18T07:00:10;97703.22;;;12.08;58.19
60589;BME280;46421;48.610;9.334;2023-03-18T07:02:35;97701.28;;;11.08;60.52
60589;BME280;46421;48.610;9.334;2023-03-18T07:05:01;97701.28;;;10.41;63.21
60589;BME280;46421;48.610;9.334;2023-03-18T07:07:28;97706.28;;;9.68;65.59
60589;BME280;46421;48.610;9.334;2023-03-18T07:09:54;97712.50;;;10.28;63.25
60589;BME280;46421;48.610;9.334;2023-03-18T07:12:19;97708.69;;;11.78;57.48
60589;BME280;46421;48.610;9.334;2023-03-18T07:14:44;97714.97;;;12.97;53.55
60589;BME280;46421;48.610;9.334;2023-03-18T07:17:11;97714.53;;;13.89;53.16
60589;BME280;46421;48.610;9.334;2023-03-18T07:19:36;97705.56;;;14.62;52.74
60589;BME280;46421;48.610;9.334;2023-03-18T07:22:02;97717.84;;;15.29;49.65
60589;BME280;46421;48.610;9.334;2023-03-18T07:24:27;97715.34;;;16.23;48.68
60589;BME280;46421;48.610;9.334;2023-03-18T07:26:53;97715.44;;;16.54;44.83
60589;BME280;46421;48.610;9.334;2023-03-18T07:29:19;97717.66;;;17.43;44.36
60589;BME280;46421;48.610;9.334;2023-03-18T07:31:44;97716.94;;;16.06;46.79
60589;BME280;46421;48.610;9.334;2023-03-18T07:34:11;97718.56;;;16.88;45.03
60589;BME280;46421;48.610;9.334;2023-03-18T07:36:37;97717.81;;;16.00;45.48
60589;BME280;46421;48.610;9.334;2023-03-18T07:39:04;97727.28;;;17.20;43.84
60589;BME280;46421;48.610;9.334;2023-03-18T07:41:30;97728.31;;;17.50;42.41
60589;BME280;46421;48.610;9.334;2023-03-18T07:43:55;97719.91;;;18.60;41.22
60589;BME280;46421;48.610;9.334;2023-03-18T07:46:21;97714.00;;;18.99;42.12
60589;BME280;46421;48.610;9.334;2023-03-18T07:48:47;97716.72;;;18.75;43.58
60589;BME280;46421;48.610;9.334;2023-03-18T07:51:13;97727.22;;;19.29;41.46
60589;BME280;46421;48.610;9.334;2023-03-18T07:53:40;97726.31;;;19.52;39.24
60589;BME280;46421;48.610;9.334;2023-03-18T07:56:06;97720.03;;;19.47;38.72
60589;BME280;46421;48.610;9.334;2023-03-18T07:58:32;97736.00;;;18.84;41.09
60589;BME280;46421;48.610;9.334;2023-03-18T08:00:58;97732.63;;;20.21;39.99
60589;BME280;46421;48.610;9.334;2023-03-18T08:03:23;97723.03;;;20.69;38.34
60589;BME280;46421;48.610;9.334;2023-03-18T08:05:49;97729.47;;;19.03;40.68
60589;BME280;46421;48.610;9.334;2023-03-18T08:08:15;97733.22;;;19.31;42.25
60589;BME280;46421;48.610;9.334;2023-03-18T08:10:40;97732.31;;;19.71;39.90
60589;BME280;46421;48.610;9.334;2023-03-18T08:13:06;97729.06;;;20.37;41.83
60589;BME280;46421;48.610;9.334;2023-03-18T08:15:31;97731.66;;;21.33;39.18
60589;BME280;46421;48.610;9.334;2023-03-18T08:17:57;97732.44;;;22.21;36.08
60589;BME280;46421;48.610;9.334;2023-03-18T08:20:22;97733.59;;;23.26;33.81
60589;BME280;46421;48.610;9.334;2023-03-18T08:22:48;97736.97;;;24.16;31.28
60589;BME280;46421;48.610;9.334;2023-03-18T08:25:14;97734.78;;;24.28;28.56
60589;BME280;46421;48.610;9.334;2023-03-18T08:27:40;97739.34;;;24.59;28.16
60589;BME280;46421;48.610;9.334;2023-03-18T08:30:06;97732.03;;;24.49;29.05
60589;BME280;46421;48.610;9.334;2023-03-18T08:32:32;97734.69;;;25.46;29.50
60589;BME280;46421;48.610;9.334;2023-03-18T08:34:57;97734.78;;;24.08;31.69
60589;BME280;46421;48.610;9.334;2023-03-18T08:37:23;97734.47;;;24.56;30.88
60589;BME280;46421;48.610;9.334;2023-03-18T08:39:48;97734.44;;;23.42;34.27
60589;BME280;46421;48.610;9.334;2023-03-18T08:42:14;97732.03;;;23.77;31.58
60589;BME280;46421;48.610;9.334;2023-03-18T08:44:39;97732.50;;;23.37;32.90
60589;BME280;46421;48.610;9.334;2023-03-18T08:47:06;97734.19;;;23.49;29.91
60589;BME280;46421;48.610;9.334;2023-03-18T08:49:32;97724.69;;;23.46;33.17
60589;BME280;46421;48.610;9.334;2023-03-18T08:51:57;97716.06;;;24.22;32.97
60589;BME280;46421;48.610;9.334;2023-03-18T08:54:23;97720.41;;;24.18;32.42
60589;BME280;46421;48.610;9.334;2023-03-18T08:56:48;97709.88;;;25.02;29.20
60589;BME280;46421;48.610;9.334;2023-03-18T08:59:13;97717.75;;;25.04;28.70
60589;BME280;46421;48.610;9.334;2023-03-18T09:01:39;97720.59;;;24.62;29.06
60589;BME280;46421;48.610;9.334;2023-03-18T09:04:05;97717.72;;;26.33;24.45
60589;BME280;46421;48.610;9.334;2023-03-18T09:06:31;97722.13;;;28.64;22.45
60589;BME280;46421;48.610;9.334;2023-03-18T09:08:57;97705.69;;;29.70;19.92
60589;BME280;46421;48.610;9.334;2023-03-18T09:11:23;97715.59;;;28.32;25.21
60589;BME280;46421;48.610;9.334;2023-03-18T09:13:49;97714.03;;;24.84;24.58
60589;BME280;46421;48.610;9.334;2023-03-18T09:16:14;97706.13;;;28.57;22.52
60589;BME280;46421;48.610;9.334;2023-03-18T09:18:40;97702.47;;;27.82;22.10
60589;BME280;46421;48.610;9.334;2023-03-18T09:21:05;97709.84;;;28.00;22.52
60589;BME280;46421;48.610;9.334;2023-03-18T09:23:31;97702.69;;;29.80;20.57
60589;BME280;46421;48.610;9.334;2023-03-18T09:25:57;97704.13;;;28.91;20.44
60589;BME280;46421;48.610;9.334;2023-03-18T09:28:24;97702.66;;;30.26;20.99
60589;BME280;46421;48.610;9.334;2023-03-18T09:30:49;97700.69;;;29.72;18.09
60589;BME280;46421;48.610;9.334;2023-03-18T09:33:15;97699.94;;;30.26;18.03
60589;BME280;46421;48.610;9.334;2023-03-18T09:35:41;97707.91;;;30.05;17.24
60589;BME280;46421;48.610;9.334;2023-03-18T09:38:07;97708.91;;;29.36;19.40
60589;BME280;46421;48.610;9.334;2023-03-18T09:40:35;97693.84;;;31.53;16.21
60589;BME280;46421;48.610;9.334;2023-03-18T09:43:12;97688.81;;;30.54;17.40
60589;BME280;46421;48.610;9.334;2023-03-18T09:46:08;97688.63;;;29.50;17.98
60589;BME280;46421;48.610;9.334;2023-03-18T09:48:43;97690.06;;;27.56;18.56
60589;BME280;46421;48.610;9.334;2023-03-18T09:54:09;97683.75;;;29.47;17.52
60589;BME280;46421;48.610;9.334;2023-03-18T09:56:37;97682.63;;;28.56;18.77
60589;BME280;46421;48.610;9.334;2023-03-18T10:01:42;97681.63;;;28.94;18.13
60589;BME280;46421;48.610;9.334;2023-03-18T10:04:20;97675.34;;;28.51;17.84
60589;BME280;46421;48.610;9.334;2023-03-18T10:06:49;97687.78;;;30.81;16.74
60589;BME280;46421;48.610;9.334;2023-03-18T10:09:23;97667.84;;;31.51;16.88
60589;BME280;46421;48.610;9.334;2023-03-18T10:11:54;97675.06;;;27.73;19.57
60589;BME280;46421;48.610;9.334;2023-03-18T10:14:34;97670.41;;;26.48;20.90
60589;BME280;46421;48.610;9.334;2023-03-18T10:17:13;97660.81;;;26.99;22.68
60589;BME280;46421;48.610;9.334;2023-03-18T10:19:45;97670.25;;;30.51;18.92
60589;BME280;46421;48.610;9.334;2023-03-18T10:22:27;97674.00;;;31.30;18.60
60589;BME280;46421;48.610;9.334;2023-03-18T10:26:00;97677.47;;;31.04;15.94
60589;BME280;46421;48.610;9.334;2023-03-18T10:33:25;97662.97;;;29.10;18.16
60589;BME280;46421;48.610;9.334;2023-03-18T10:36:07;97663.41;;;30.39;18.60
60589;BME280;46421;48.610;9.334;2023-03-18T10:38:38;97664.09;;;31.03;16.43
60589;BME280;46421;48.610;9.334;2023-03-18T10:41:15;97652.84;;;31.48;16.22
60589;BME280;46421;48.610;9.334;2023-03-18T10:43:42;97654.47;;;32.71;17.60
60589;BME280;46421;48.610;9.334;2023-03-18T10:46:10;97654.84;;;32.60;15.42
60589;BME280;46421;48.610;9.334;2023-03-18T10:48:45;97656.75;;;32.99;15.72
60589;BME280;46421;48.610;9.334;2023-03-18T10:54:09;97651.53;;;29.30;17.81
60589;BME280;46421;48.610;9.334;2023-03-18T10:56:36;97642.13;;;27.50;17.54
60589;BME280;46421;48.610;9.334;2023-03-18T10:59:13;97639.84;;;26.76;20.44
60589;BME280;46421;48.610;9.334;2023-03-18T11:01:42;97637.38;;;28.78;18.48
60589;BME280;46421;48.610;9.334;2023-03-18T11:04:15;97633.94;;;27.83;18.42
60589;BME280;46421;48.610;9.334;2023-03-18T11:06:47;97611.56;;;27.48;26.32
60589;BME280;46421;48.610;9.334;2023-03-18T11:09:19;97625.88;;;27.02;20.37
60589;BME280;46421;48.610;9.334;2023-03-18T11:11:46;97636.38;;;26.46;20.50
60589;BME280;46421;48.610;9.334;2023-03-18T11:14:19;97626.56;;;25.91;20.21
60589;BME280;46421;48.610;9.334;2023-03-18T11:17:16;97629.25;;;29.83;19.40
60589;BME280;46421;48.610;9.334;2023-03-18T11:20:05;97617.94;;;31.75;16.47
60589;BME280;46421;48.610;9.334;2023-03-18T11:22:33;97625.19;;;31.53;15.59
60589;BME280;46421;48.610;9.334;2023-03-18T11:25:02;97612.38;;;31.93;15.48
60589;BME280;46421;48.610;9.334;2023-03-18T11:27:34;97616.75;;;30.80;16.09
60589;BME280;46421;48.610;9.334;2023-03-18T11:30:22;97612.91;;;32.34;15.12
60589;BME280;46421;48.610;9.334;2023-03-18T11:32:54;97614.72;;;31.12;16.05
60589;BME280;46421;48.610;9.334;2023-03-18T11:35:22;97610.91;;;30.55;17.12
60589;BME280;46421;48.610;9.334;2023-03-18T11:37:49;97597.44;;;31.55;16.92
60589;BME280;46421;48.610;9.334;2023-03-18T11:40:21;97600.84;;;32.08;15.40
60589;BME280;46421;48.610;9.334;2023-03-18T11:42:53;97607.91;;;31.79;16.69
60589;BME280;46421;48.610;9.334;2023-03-18T11:47:53;97599.97;;;33.70;14.60
60589;BME280;46421;48.610;9.334;2023-03-18T11:50:21;97593.50;;;33.32;15.39
60589;BME280;46421;48.610;9.334;2023-03-18T11:52:59;97590.97;;;30.89;17.01
60589;BME280;46421;48.610;9.334;2023-03-18T11:55:43;97592.19;;;32.66;15.31
60589;BME280;46421;48.610;9.334;2023-03-18T11:58:45;97583.91;;;33.38;17.05
60589;BME280;46421;48.610;9.334;2023-03-18T12:01:34;97577.56;;;29.90;15.72
60589;BME280;46421;48.610;9.334;2023-03-18T12:04:17;97574.59;;;31.90;16.83
60589;BME280;46421;48.610;9.334;2023-03-18T12:06:58;97576.59;;;32.49;16.13
60589;BME280;46421;48.610;9.334;2023-03-18T12:09:38;97564.81;;;30.92;17.63
60589;BME280;46421;48.610;9.334;2023-03-18T12:12:39;97571.50;;;32.90;16.91
60589;BME280;46421;48.610;9.334;2023-03-18T12:15:18;97558.84;;;30.90;17.03
60589;BME280;46421;48.610;9.334;2023-03-18T12:20:50;97559.41;;;32.82;14.38
60589;BME280;46421;48.610;9.334;2023-03-18T12:26:10;97564.84;;;32.40;15.54
60589;BME280;46421;48.610;9.334;2023-03-18T12:28:47;97543.78;;;33.29;14.61
60589;BME280;46421;48.610;9.334;2023-03-18T12:31:29;97546.72;;;33.78;14.82
60589;BME280;46421;48.610;9.334;2023-03-18T12:33:56;97549.38;;;31.88;15.12
60589;BME280;46421;48.610;9.334;2023-03-18T12:39:38;97546.75;;;33.23;15.24
60589;BME280;46421;48.610;9.334;2023-03-18T12:42:10;97541.06;;;31.40;15.46
60589;BME280;46421;48.610;9.334;2023-03-18T12:44:57;97546.25;;;30.13;16.36
60589;BME280;46421;48.610;9.334;2023-03-18T12:47:34;97532.28;;;30.41;15.76
60589;BME280;46421;48.610;9.334;2023-03-18T12:50:19;97527.75;;;29.88;18.04
60589;BME280;46421;48.610;9.334;2023-03-18T12:52:49;97530.25;;;31.35;16.59
60589;BME280;46421;48.610;9.334;2023-03-18T12:55:27;97524.38;;;29.91;17.43
60589;BME280;46421;48.610;9.334;2023-03-18T12:58:22;97527.66;;;29.39;17.55
60589;BME280;46421;48.610;9.334;2023-03-18T13:00:59;97518.50;;;28.98;19.82
60589;BME280;46421;48.610;9.334;2023-03-18T13:03:32;97523.47;;;29.18;20.37
60589;BME280;46421;48.610;9.334;2023-03-18T13:06:02;97515.94;;;28.65;20.19
60589;BME280;46421;48.610;9.334;2023-03-18T13:14:13;97513.75;;;26.46;21.85
60589;BME280;46421;48.610;9.334;2023-03-18T13:16:42;97512.34;;;25.81;23.08
60589;BME280;46421;48.610;9.334;2023-03-18T13:19:08;97506.75;;;25.96;22.38
60589;BME280;46421;48.610;9.334;2023-03-18T13:21:40;97506.59;;;24.94;22.55
60589;BME280;46421;48.610;9.334;2023-03-18T13:24:30;97509.06;;;24.40;24.41
60589;BME280;46421;48.610;9.334;2023-03-18T13:29:53;97500.00;;;24.55;20.81
60589;BME280;46421;48.610;9.334;2023-03-18T13:41:08;97489.72;;;26.10;20.76
60589;BME280;46421;48.610;9.334;2023-03-18T13:43:43;97501.84;;;26.99;20.95
60589;BME280;46421;48.610;9.334;2023-03-18T13:46:24;97489.44;;;27.40;21.50
60589;BME280;46421;48.610;9.334;2023-03-18T13:48:56;97496.34;;;27.18;20.93
60589;BME280;46421;48.610;9.334;2023-03-18T13:53:49;97486.47;;;27.69;19.08
60589;BME280;46421;48.610;9.334;2023-03-18T13:56:47;97486.97;;;28.78;18.89
60589;BME280;46421;48.610;9.334;2023-03-18T14:02:25;97484.03;;;27.54;19.20
60589;BME280;46421;48.610;9.334;2023-03-18T14:04:55;97491.19;;;28.47;18.09